Hornblower Hybrid — WDE6422 — position and weather

sailwx.info

Track history (hours):
 
Tides and Currents Weather Stations Pressure Air Temp Water Temp Dewpoint Dewpoint Depression Visibility Wind Speed Wind Dir Waves Ship Positions

Hornblower Hybrid

Owner: Hornblower Hybrid LLC, San Francisco, CA. More information available from US FCC via Universal Licensing System and Coast Guard Vessel Documentation Center.

Last reported at 2018-Jun-19 18:31 UTC. Time now 2018-Jun-19 18:27 UTC.
Position N 37°51' W 122°27'.

Length 20 m; draft 2 m.

Type: Ship. MMSI: 367380120.

Date/timePositionNaut miles runAvg speedWind from/ knotsBaromVisibWave heightAir tempDewpointWater temp
2018-Jun-19 18:31N 37°51' W 122°27'1 2.3
2018-Jun-19 18:01N 37°52' W 122°26'0 0.9
2018-Jun-19 17:28N 37°52' W 122°26'3 6.3
2018-Jun-19 17:00N 37°50' W 122°25'1 2.2
2018-Jun-19 16:30N 37°49' W 122°24'0 0.3
2018-Jun-19 16:00N 37°48' W 122°24'0 0.0
2018-Jun-18 22:36N 37°48' W 122°24'0 0.1
2018-Jun-18 22:30N 37°48' W 122°24'3 5.3
2018-Jun-18 22:01N 37°51' W 122°25'2 3.1
2018-Jun-18 21:30N 37°52' W 122°26'1 1.7
2018-Jun-18 21:00N 37°52' W 122°25'3 5.1
2018-Jun-18 20:30N 37°49' W 122°25'3 5.5
2018-Jun-18 20:00N 37°52' W 122°26'1 1.7
2018-Jun-18 19:31N 37°52' W 122°27'2 4.9
2018-Jun-18 19:00N 37°50' W 122°25'1 2.9
2018-Jun-18 18:30N 37°51' W 122°26'1 2.6
2018-Jun-18 18:00N 37°52' W 122°26'0 0.0
2018-Jun-18 17:30N 37°52' W 122°26'2 3.6
2018-Jun-18 17:00N 37°50' W 122°25'2 4.4
2018-Jun-18 16:30N 37°48' W 122°24'0 0.0
2018-Jun-18 16:00N 37°48' W 122°24'0 0.1
2018-Jun-18 15:29N 37°48' W 122°24'0 0.0
2018-Jun-17 22:24N 37°48' W 122°24'2 6.0
2018-Jun-17 22:00N 37°51' W 122°25'2 3.4
2018-Jun-17 21:30N 37°52' W 122°26'1 2.2
2018-Jun-17 21:00N 37°51' W 122°26'1 2.4
2018-Jun-17 20:31N 37°50' W 122°25'2 4.5
2018-Jun-17 20:00N 37°52' W 122°26'1 1.7
2018-Jun-17 19:30N 37°51' W 122°27'2 4.5
2018-Jun-17 19:01N 37°50' W 122°25'3 5.3
2018-Jun-17 18:31N 37°52' W 122°26'0 0.0
2018-Jun-17 18:00N 37°52' W 122°26'0 0.0
2018-Jun-17 17:31N 37°52' W 122°26'2 4.8
2018-Jun-17 17:00N 37°50' W 122°25'2 3.2
2018-Jun-17 16:31N 37°48' W 122°24'0 0.0
2018-Jun-17 15:59N 37°48' W 122°24'0 0.0
2018-Jun-17 15:30N 37°48' W 122°24'0 0.0
2018-Jun-16 22:30N 37°48' W 122°24'2 4.6
2018-Jun-16 22:00N 37°51' W 122°25'2 3.5
2018-Jun-16 21:30N 37°52' W 122°26'1 2.6
2018-Jun-16 21:00N 37°51' W 122°25'2 3.6
2018-Jun-16 20:30N 37°50' W 122°25'3 5.4
2018-Jun-16 20:00N 37°52' W 122°26'1 2.0
2018-Jun-16 19:30N 37°51' W 122°27'2 3.9
2018-Jun-16 19:00N 37°50' W 122°25'3 5.3
2018-Jun-16 18:30N 37°52' W 122°26'0 0.1
2018-Jun-16 17:59N 37°52' W 122°26'0 0.0
2018-Jun-16 17:30N 37°52' W 122°26'2 4.1
2018-Jun-16 17:00N 37°50' W 122°25'2 3.9
2018-Jun-16 16:30N 37°48' W 122°24'0 0.0
2018-Jun-16 16:00N 37°48' W 122°24'0 0.0
2018-Jun-16 15:30N 37°48' W 122°24'0 0.0
2018-Jun-15 22:36N 37°48' W 122°24'0 0.0
2018-Jun-15 22:31N 37°48' W 122°24'3 5.2
2018-Jun-15 22:01N 37°51' W 122°25'2 2.9
2018-Jun-15 21:30N 37°52' W 122°26'1 2.1
2018-Jun-15 21:00N 37°51' W 122°27'2 3.5
2018-Jun-15 20:30N 37°50' W 122°25'3 5.0
2018-Jun-15 20:01N 37°52' W 122°26'1 1.7
2018-Jun-15 19:30N 37°51' W 122°27'2 4.3
2018-Jun-15 19:01N 37°50' W 122°25'2 4.9
2018-Jun-15 18:31N 37°52' W 122°26'0 0.0
2018-Jun-15 18:00N 37°52' W 122°26'0 0.0
2018-Jun-15 17:30N 37°52' W 122°26'2 4.7
2018-Jun-15 17:00N 37°50' W 122°25'2 3.5
2018-Jun-15 16:30N 37°48' W 122°24'0 0.0
2018-Jun-15 16:01N 37°48' W 122°24'0 0.0
2018-Jun-14 22:53N 37°48' W 122°24'0 0.0
2018-Jun-14 22:30N 37°48' W 122°24'4 7.6
2018-Jun-14 22:00N 37°52' W 122°25'1 1.3
2018-Jun-14 21:29N 37°52' W 122°26'1 2.2
2018-Jun-14 21:00N 37°51' W 122°27'1 2.1
2018-Jun-14 20:30N 37°50' W 122°26'2 3.7
2018-Jun-14 20:00N 37°52' W 122°26'2 3.1
2018-Jun-14 19:30N 37°51' W 122°26'1 1.8
2018-Jun-14 19:00N 37°50' W 122°25'2 4.8
2018-Jun-14 18:30N 37°52' W 122°26'0 0.0
2018-Jun-14 18:00N 37°52' W 122°26'0 0.0
2018-Jun-14 17:30N 37°52' W 122°26'3 6.0
2018-Jun-14 17:00N 37°49' W 122°25'1 1.6
2018-Jun-14 16:24N 37°48' W 122°24'0 0.0
2018-Jun-14 16:00N 37°48' W 122°24'0 0.0
2018-Jun-14 15:30N 37°48' W 122°24'0 0.0
2018-Jun-13 22:30N 37°48' W 122°24'2 4.2
2018-Jun-13 22:01N 37°50' W 122°25'2 4.0
2018-Jun-13 21:30N 37°52' W 122°26'1 1.5
2018-Jun-13 21:00N 37°52' W 122°27'3 5.2
2018-Jun-13 20:30N 37°50' W 122°25'3 5.4
2018-Jun-13 20:01N 37°52' W 122°26'1 2.0
2018-Jun-13 19:30N 37°51' W 122°27'2 3.6
2018-Jun-13 19:01N 37°50' W 122°25'3 5.0
2018-Jun-13 18:31N 37°52' W 122°26'0 0.0
2018-Jun-13 18:00N 37°52' W 122°26'0 0.0
2018-Jun-13 17:30N 37°52' W 122°26'3 5.0
2018-Jun-13 17:00N 37°50' W 122°25'2 3.0
2018-Jun-13 16:30N 37°48' W 122°24'0 0.0
2018-Jun-13 16:00N 37°48' W 122°24'0 0.0
2018-Jun-13 15:30N 37°48' W 122°24'0 0.0
2018-Jun-12 22:44N 37°48' W 122°24'0 0.0
2018-Jun-12 22:30N 37°48' W 122°24'2 4.6
2018-Jun-12 22:00N 37°51' W 122°25'2 3.6
2018-Jun-12 21:30N 37°52' W 122°26'1 1.5
2018-Jun-12 21:00N 37°52' W 122°25'2 4.8
2018-Jun-12 20:30N 37°50' W 122°25'3 5.3
2018-Jun-12 20:00N 37°52' W 122°26'1 1.9
2018-Jun-12 19:30N 37°51' W 122°27'2 4.3
2018-Jun-12 19:00N 37°50' W 122°25'3 5.1
2018-Jun-12 18:29N 37°52' W 122°26'0 0.0
2018-Jun-12 18:00N 37°52' W 122°26'0 0.0
2018-Jun-12 17:30N 37°52' W 122°26'2 4.1
2018-Jun-12 17:00N 37°50' W 122°25'2 3.4
2018-Jun-12 16:26N 37°48' W 122°24'0 0.0
2018-Jun-12 16:00N 37°48' W 122°24'0 0.1
2018-Jun-12 15:30N 37°48' W 122°24'0 0.0
2018-Jun-11 22:27N 37°48' W 122°24'2 4.2
2018-Jun-11 22:00N 37°50' W 122°25'2 4.3
2018-Jun-11 21:30N 37°52' W 122°26'1 2.3
2018-Jun-11 21:00N 37°51' W 122°27'2 3.5
2018-Jun-11 20:30N 37°50' W 122°25'3 5.1
2018-Jun-11 20:00N 37°52' W 122°26'1 2.0
2018-Jun-11 19:30N 37°51' W 122°26'1 2.6
2018-Jun-11 19:00N 37°50' W 122°26'2 4.0
2018-Jun-11 18:30N 37°52' W 122°26'0 0.0
2018-Jun-11 18:00N 37°52' W 122°26'0 0.0
2018-Jun-11 17:29N 37°52' W 122°26'2 5.1
2018-Jun-11 17:00N 37°50' W 122°26'2 3.5
2018-Jun-11 16:30N 37°48' W 122°24'0 0.0
2018-Jun-11 16:00N 37°48' W 122°24'0 0.0
2018-Jun-11 15:30N 37°48' W 122°24'0 0.0
2018-Jun-10 22:22N 37°48' W 122°24'2 6.0
2018-Jun-10 22:00N 37°51' W 122°25'2 3.7
2018-Jun-10 21:30N 37°52' W 122°26'1 1.7
2018-Jun-10 21:00N 37°52' W 122°27'2 4.0
2018-Jun-10 20:30N 37°50' W 122°25'2 4.6
2018-Jun-10 20:00N 37°52' W 122°26'1 1.8
2018-Jun-10 19:30N 37°52' W 122°27'2 4.7
2018-Jun-10 19:00N 37°50' W 122°25'3 5.1
2018-Jun-10 18:30N 37°52' W 122°26'0 0.0
2018-Jun-10 18:00N 37°52' W 122°26'0 0.0
2018-Jun-10 17:30N 37°52' W 122°26'3 5.1
2018-Jun-10 17:00N 37°50' W 122°25'2 3.1
2018-Jun-10 16:30N 37°48' W 122°24'0 0.0
2018-Jun-10 16:00N 37°48' W 122°24'0 0.0
2018-Jun-10 15:28N 37°48' W 122°24'0 0.0
2018-Jun-09 22:21N 37°48' W 122°24'2 5.9
2018-Jun-09 22:00N 37°51' W 122°24'2 4.1
2018-Jun-09 21:29N 37°52' W 122°26'1 2.5
2018-Jun-09 21:01N 37°51' W 122°26'1 2.4
2018-Jun-09 20:30N 37°50' W 122°25'2 4.7
2018-Jun-09 20:00N 37°52' W 122°26'1 1.8
2018-Jun-09 19:30N 37°51' W 122°27'2 4.4
2018-Jun-09 19:01N 37°50' W 122°25'3 5.1
2018-Jun-09 18:30N 37°52' W 122°26'  
Track history (hours):
 
Tides and Currents Weather Stations Pressure Air Temp Water Temp Dewpoint Dewpoint Depression Visibility Wind Speed Wind Dir Waves Ship Positions

Hornblower Hybrid

Owner: Hornblower Hybrid LLC, San Francisco, CA. More information available from US FCC via Universal Licensing System and Coast Guard Vessel Documentation Center.

Last reported at 2018-Jun-19 18:31 UTC. Time now 2018-Jun-19 18:27 UTC.
Position N 37°51' W 122°27'.

Length 20 m; draft 2 m.

Type: Ship. MMSI: 367380120.

Date/timePositionNaut miles runAvg speedWind from/ knotsBaromVisibWave heightAir tempDewpointWater temp
2018-Jun-19 18:31N 37°51' W 122°27'1 2.3
2018-Jun-19 18:01N 37°52' W 122°26'0 0.9
2018-Jun-19 17:28N 37°52' W 122°26'3 6.3
2018-Jun-19 17:00N 37°50' W 122°25'1 2.2
2018-Jun-19 16:30N 37°49' W 122°24'0 0.3
2018-Jun-19 16:00N 37°48' W 122°24'0 0.0
2018-Jun-18 22:36N 37°48' W 122°24'0 0.1
2018-Jun-18 22:30N 37°48' W 122°24'3 5.3
2018-Jun-18 22:01N 37°51' W 122°25'2 3.1
2018-Jun-18 21:30N 37°52' W 122°26'1 1.7
2018-Jun-18 21:00N 37°52' W 122°25'3 5.1
2018-Jun-18 20:30N 37°49' W 122°25'3 5.5
2018-Jun-18 20:00N 37°52' W 122°26'1 1.7
2018-Jun-18 19:31N 37°52' W 122°27'2 4.9
2018-Jun-18 19:00N 37°50' W 122°25'1 2.9
2018-Jun-18 18:30N 37°51' W 122°26'1 2.6
2018-Jun-18 18:00N 37°52' W 122°26'0 0.0
2018-Jun-18 17:30N 37°52' W 122°26'2 3.6
2018-Jun-18 17:00N 37°50' W 122°25'2 4.4
2018-Jun-18 16:30N 37°48' W 122°24'0 0.0
2018-Jun-18 16:00N 37°48' W 122°24'0 0.1
2018-Jun-18 15:29N 37°48' W 122°24'0 0.0
2018-Jun-17 22:24N 37°48' W 122°24'2 6.0
2018-Jun-17 22:00N 37°51' W 122°25'2 3.4
2018-Jun-17 21:30N 37°52' W 122°26'1 2.2
2018-Jun-17 21:00N 37°51' W 122°26'1 2.4
2018-Jun-17 20:31N 37°50' W 122°25'2 4.5
2018-Jun-17 20:00N 37°52' W 122°26'1 1.7
2018-Jun-17 19:30N 37°51' W 122°27'2 4.5
2018-Jun-17 19:01N 37°50' W 122°25'3 5.3
2018-Jun-17 18:31N 37°52' W 122°26'0 0.0
2018-Jun-17 18:00N 37°52' W 122°26'0 0.0
2018-Jun-17 17:31N 37°52' W 122°26'2 4.8
2018-Jun-17 17:00N 37°50' W 122°25'2 3.2
2018-Jun-17 16:31N 37°48' W 122°24'0 0.0
2018-Jun-17 15:59N 37°48' W 122°24'0 0.0
2018-Jun-17 15:30N 37°48' W 122°24'0 0.0
2018-Jun-16 22:30N 37°48' W 122°24'2 4.6
2018-Jun-16 22:00N 37°51' W 122°25'2 3.5
2018-Jun-16 21:30N 37°52' W 122°26'1 2.6
2018-Jun-16 21:00N 37°51' W 122°25'2 3.6
2018-Jun-16 20:30N 37°50' W 122°25'3 5.4
2018-Jun-16 20:00N 37°52' W 122°26'1 2.0
2018-Jun-16 19:30N 37°51' W 122°27'2 3.9
2018-Jun-16 19:00N 37°50' W 122°25'3 5.3
2018-Jun-16 18:30N 37°52' W 122°26'0 0.1
2018-Jun-16 17:59N 37°52' W 122°26'0 0.0
2018-Jun-16 17:30N 37°52' W 122°26'2 4.1
2018-Jun-16 17:00N 37°50' W 122°25'2 3.9
2018-Jun-16 16:30N 37°48' W 122°24'0 0.0
2018-Jun-16 16:00N 37°48' W 122°24'0 0.0
2018-Jun-16 15:30N 37°48' W 122°24'0 0.0
2018-Jun-15 22:36N 37°48' W 122°24'0 0.0
2018-Jun-15 22:31N 37°48' W 122°24'3 5.2
2018-Jun-15 22:01N 37°51' W 122°25'2 2.9
2018-Jun-15 21:30N 37°52' W 122°26'1 2.1
2018-Jun-15 21:00N 37°51' W 122°27'2 3.5
2018-Jun-15 20:30N 37°50' W 122°25'3 5.0
2018-Jun-15 20:01N 37°52' W 122°26'1 1.7
2018-Jun-15 19:30N 37°51' W 122°27'2 4.3
2018-Jun-15 19:01N 37°50' W 122°25'2 4.9
2018-Jun-15 18:31N 37°52' W 122°26'0 0.0
2018-Jun-15 18:00N 37°52' W 122°26'0 0.0
2018-Jun-15 17:30N 37°52' W 122°26'2 4.7
2018-Jun-15 17:00N 37°50' W 122°25'2 3.5
2018-Jun-15 16:30N 37°48' W 122°24'0 0.0
2018-Jun-15 16:01N 37°48' W 122°24'0 0.0
2018-Jun-14 22:53N 37°48' W 122°24'0 0.0
2018-Jun-14 22:30N 37°48' W 122°24'4 7.6
2018-Jun-14 22:00N 37°52' W 122°25'1 1.3
2018-Jun-14 21:29N 37°52' W 122°26'1 2.2
2018-Jun-14 21:00N 37°51' W 122°27'1 2.1
2018-Jun-14 20:30N 37°50' W 122°26'2 3.7
2018-Jun-14 20:00N 37°52' W 122°26'2 3.1
2018-Jun-14 19:30N 37°51' W 122°26'1 1.8
2018-Jun-14 19:00N 37°50' W 122°25'2 4.8
2018-Jun-14 18:30N 37°52' W 122°26'0 0.0
2018-Jun-14 18:00N 37°52' W 122°26'0 0.0
2018-Jun-14 17:30N 37°52' W 122°26'3 6.0
2018-Jun-14 17:00N 37°49' W 122°25'1 1.6
2018-Jun-14 16:24N 37°48' W 122°24'0 0.0
2018-Jun-14 16:00N 37°48' W 122°24'0 0.0
2018-Jun-14 15:30N 37°48' W 122°24'0 0.0
2018-Jun-13 22:30N 37°48' W 122°24'2 4.2
2018-Jun-13 22:01N 37°50' W 122°25'2 4.0
2018-Jun-13 21:30N 37°52' W 122°26'1 1.5
2018-Jun-13 21:00N 37°52' W 122°27'3 5.2
2018-Jun-13 20:30N 37°50' W 122°25'3 5.4
2018-Jun-13 20:01N 37°52' W 122°26'1 2.0
2018-Jun-13 19:30N 37°51' W 122°27'2 3.6
2018-Jun-13 19:01N 37°50' W 122°25'3 5.0
2018-Jun-13 18:31N 37°52' W 122°26'0 0.0
2018-Jun-13 18:00N 37°52' W 122°26'0 0.0
2018-Jun-13 17:30N 37°52' W 122°26'3 5.0
2018-Jun-13 17:00N 37°50' W 122°25'2 3.0
2018-Jun-13 16:30N 37°48' W 122°24'0 0.0
2018-Jun-13 16:00N 37°48' W 122°24'0 0.0
2018-Jun-13 15:30N 37°48' W 122°24'0 0.0
2018-Jun-12 22:44N 37°48' W 122°24'0 0.0
2018-Jun-12 22:30N 37°48' W 122°24'2 4.6
2018-Jun-12 22:00N 37°51' W 122°25'2 3.6
2018-Jun-12 21:30N 37°52' W 122°26'1 1.5
2018-Jun-12 21:00N 37°52' W 122°25'2 4.8
2018-Jun-12 20:30N 37°50' W 122°25'3 5.3
2018-Jun-12 20:00N 37°52' W 122°26'1 1.9
2018-Jun-12 19:30N 37°51' W 122°27'2 4.3
2018-Jun-12 19:00N 37°50' W 122°25'3 5.1
2018-Jun-12 18:29N 37°52' W 122°26'0 0.0
2018-Jun-12 18:00N 37°52' W 122°26'0 0.0
2018-Jun-12 17:30N 37°52' W 122°26'2 4.1
2018-Jun-12 17:00N 37°50' W 122°25'2 3.4
2018-Jun-12 16:26N 37°48' W 122°24'0 0.0
2018-Jun-12 16:00N 37°48' W 122°24'0 0.1
2018-Jun-12 15:30N 37°48' W 122°24'0 0.0
2018-Jun-11 22:27N 37°48' W 122°24'2 4.2
2018-Jun-11 22:00N 37°50' W 122°25'2 4.3
2018-Jun-11 21:30N 37°52' W 122°26'1 2.3
2018-Jun-11 21:00N 37°51' W 122°27'2 3.5
2018-Jun-11 20:30N 37°50' W 122°25'3 5.1
2018-Jun-11 20:00N 37°52' W 122°26'1 2.0
2018-Jun-11 19:30N 37°51' W 122°26'1 2.6
2018-Jun-11 19:00N 37°50' W 122°26'2 4.0
2018-Jun-11 18:30N 37°52' W 122°26'0 0.0
2018-Jun-11 18:00N 37°52' W 122°26'0 0.0
2018-Jun-11 17:29N 37°52' W 122°26'2 5.1
2018-Jun-11 17:00N 37°50' W 122°26'2 3.5
2018-Jun-11 16:30N 37°48' W 122°24'0 0.0
2018-Jun-11 16:00N 37°48' W 122°24'0 0.0
2018-Jun-11 15:30N 37°48' W 122°24'0 0.0
2018-Jun-10 22:22N 37°48' W 122°24'2 6.0
2018-Jun-10 22:00N 37°51' W 122°25'2 3.7
2018-Jun-10 21:30N 37°52' W 122°26'1 1.7
2018-Jun-10 21:00N 37°52' W 122°27'2 4.0
2018-Jun-10 20:30N 37°50' W 122°25'2 4.6
2018-Jun-10 20:00N 37°52' W 122°26'1 1.8
2018-Jun-10 19:30N 37°52' W 122°27'2 4.7
2018-Jun-10 19:00N 37°50' W 122°25'3 5.1
2018-Jun-10 18:30N 37°52' W 122°26'0 0.0
2018-Jun-10 18:00N 37°52' W 122°26'0 0.0
2018-Jun-10 17:30N 37°52' W 122°26'3 5.1
2018-Jun-10 17:00N 37°50' W 122°25'2 3.1
2018-Jun-10 16:30N 37°48' W 122°24'0 0.0
2018-Jun-10 16:00N 37°48' W 122°24'0 0.0
2018-Jun-10 15:28N 37°48' W 122°24'0 0.0
2018-Jun-09 22:21N 37°48' W 122°24'2 5.9
2018-Jun-09 22:00N 37°51' W 122°24'2 4.1
2018-Jun-09 21:29N 37°52' W 122°26'1 2.5
2018-Jun-09 21:01N 37°51' W 122°26'1 2.4
2018-Jun-09 20:30N 37°50' W 122°25'2 4.7
2018-Jun-09 20:00N 37°52' W 122°26'1 1.8
2018-Jun-09 19:30N 37°51' W 122°27'2 4.4
2018-Jun-09 19:01N 37°50' W 122°25'3 5.1
2018-Jun-09 18:30N 37°52' W 122°26'  

Dump ship's entire track history